Time;durP1;ratioP1;P1;durP2;ratioP2;P2;SDS_P1;SDS_P2;PMS_P1;PMS_P2;Temp;Humidity;BMP_temperature;BMP_pressure;BME280_temperature;BME280_humidity;BME280_pressure;Samples;Min_cycle;Max_cycle;Signal;HPM_P1;HPM_P2
2023/08/27 00:01:12;;;;;;;41.33;21.88;;;;;;;;;;10197098;29;20067;-91
2023/08/27 00:06:13;;;;;;;40.28;22.23;;;;;;;;;;10198806;29;20040;-90
2023/08/27 00:11:14;;;;;;;40.05;21.13;;;;;;;;;;10187426;29;20066;-91
2023/08/27 00:16:15;;;;;;;42.72;21.58;;;;;;;;;;10178979;29;20488;-91
2023/08/27 00:21:16;;;;;;;38.97;20.17;;;;;;;;;;10174531;29;20032;-90
2023/08/27 00:26:17;;;;;;;43.42;21.90;;;;;;;;;;10180452;29;20032;-90
2023/08/27 00:31:18;;;;;;;31.00;18.73;;;;;;;;;;10175284;29;20036;-91
2023/08/27 00:36:19;;;;;;;23.48;14.25;;;;;;;;;;10184188;29;20558;-90
2023/08/27 00:41:20;;;;;;;23.50;14.63;;;;;;;;;;10175454;29;20027;-92
2023/08/27 00:46:21;;;;;;;25.55;14.57;;;;;;;;;;10172331;29;20776;-91
2023/08/27 00:51:23;;;;;;;17.88;11.60;;;;;;;;;;10171165;29;20047;-92
2023/08/27 00:56:24;;;;;;;19.27;11.05;;;;;;;;;;10183446;29;20250;-92
2023/08/27 01:01:25;;;;;;;17.33;10.55;;;;;;;;;;10172634;29;20441;-91
2023/08/27 01:06:26;;;;;;;17.85;9.98;;;;;;;;;;10170474;29;20036;-91
2023/08/27 01:11:36;;;;;;;15.05;9.55;;;;;;;;;;10177199;29;20071;-92
2023/08/27 01:16:38;;;;;;;13.07;7.85;;;;;;;;;;10174177;29;20032;-91
2023/08/27 01:21:40;;;;;;;14.43;8.73;;;;;;;;;;10178192;29;20043;-90
2023/08/27 01:27:13;;;;;;;15.75;9.02;;;;;;;;;;10173381;29;20555;-91
2023/08/27 01:32:24;;;;;;;15.40;9.15;;;;;;;;;;10152596;29;20583;-91
2023/08/27 01:37:25;;;;;;;12.68;7.43;;;;;;;;;;10173846;29;20032;-91
2023/08/27 01:42:26;;;;;;;12.68;8.13;;;;;;;;;;10173769;29;20063;-91
2023/08/27 01:47:27;;;;;;;20.80;9.80;;;;;;;;;;10175003;29;20059;-91
2023/08/27 01:52:28;;;;;;;20.48;10.05;;;;;;;;;;10175493;29;20039;-90
2023/08/27 01:57:29;;;;;;;18.90;9.50;;;;;;;;;;10170632;29;20038;-92
2023/08/27 02:02:30;;;;;;;16.90;9.75;;;;;;;;;;10176008;29;20036;-92
2023/08/27 02:07:31;;;;;;;16.50;8.68;;;;;;;;;;10180236;29;20027;-91
2023/08/27 02:12:33;;;;;;;20.35;10.65;;;;;;;;;;10178891;29;20091;-92
2023/08/27 02:17:34;;;;;;;24.23;11.25;;;;;;;;;;10177028;29;20035;-91
2023/08/27 02:22:36;;;;;;;18.80;10.05;;;;;;;;;;10190706;29;20090;-93
2023/08/27 02:27:37;;;;;;;17.27;10.00;;;;;;;;;;10185616;29;20532;-91
2023/08/27 02:32:38;;;;;;;23.60;11.63;;;;;;;;;;10186171;29;20059;-90
2023/08/27 02:37:39;;;;;;;22.65;11.68;;;;;;;;;;10189303;29;20550;-91
2023/08/27 02:42:40;;;;;;;24.02;10.70;;;;;;;;;;10188334;29;20036;-90
2023/08/27 02:47:41;;;;;;;22.90;12.38;;;;;;;;;;10188739;29;20047;-90
2023/08/27 02:52:42;;;;;;;20.42;12.52;;;;;;;;;;10189887;29;20043;-89
2023/08/27 02:57:43;;;;;;;22.65;11.73;;;;;;;;;;10183397;29;20614;-91
2023/08/27 03:02:44;;;;;;;24.20;12.93;;;;;;;;;;10181325;29;20122;-89
2023/08/27 03:07:45;;;;;;;32.63;14.93;;;;;;;;;;10189661;29;20078;-88
2023/08/27 03:12:47;;;;;;;33.40;17.58;;;;;;;;;;10196833;29;20055;-88
2023/08/27 03:17:48;;;;;;;29.13;16.00;;;;;;;;;;10190354;29;20044;-87
2023/08/27 03:22:49;;;;;;;37.67;17.48;;;;;;;;;;10178048;29;20472;-88
2023/08/27 03:27:50;;;;;;;35.80;16.13;;;;;;;;;;10183633;29;20038;-88
2023/08/27 03:32:51;;;;;;;40.92;20.50;;;;;;;;;;10184669;29;20050;-87
2023/08/27 03:37:52;;;;;;;46.17;20.77;;;;;;;;;;10181525;29;20650;-87
2023/08/27 03:42:53;;;;;;;47.38;21.55;;;;;;;;;;10184547;29;20032;-89
2023/08/27 03:47:54;;;;;;;52.72;22.77;;;;;;;;;;10193737;29;20047;-89
2023/08/27 03:52:55;;;;;;;57.60;23.73;;;;;;;;;;10187460;29;20047;-90
2023/08/27 03:57:56;;;;;;;52.17;24.20;;;;;;;;;;10183389;29;20045;-87
2023/08/27 04:02:57;;;;;;;42.28;21.33;;;;;;;;;;10187479;29;20106;-87
2023/08/27 04:07:59;;;;;;;56.60;26.42;;;;;;;;;;10183859;29;20111;-87
2023/08/27 04:13:00;;;;;;;63.53;26.15;;;;;;;;;;10189298;29;20066;-89
2023/08/27 04:18:01;;;;;;;61.50;26.45;;;;;;;;;;10204284;29;20027;-91
2023/08/27 04:23:02;;;;;;;50.67;24.23;;;;;;;;;;10184783;29;20037;-88
2023/08/27 04:28:03;;;;;;;59.28;26.80;;;;;;;;;;10198952;29;20034;-89
2023/08/27 04:33:07;;;;;;;68.20;27.90;;;;;;;;;;10199516;29;20044;-88
2023/08/27 04:38:08;;;;;;;65.50;25.77;;;;;;;;;;10191976;29;20044;-88
2023/08/27 04:43:09;;;;;;;64.88;27.38;;;;;;;;;;10204615;29;20047;-88
2023/08/27 04:48:10;;;;;;;56.58;26.48;;;;;;;;;;10198806;29;20176;-88
2023/08/27 04:53:11;;;;;;;61.67;27.55;;;;;;;;;;10187577;29;20036;-89
2023/08/27 04:58:15;;;;;;;58.38;27.45;;;;;;;;;;10187854;29;20039;-88
2023/08/27 05:03:16;;;;;;;70.10;27.67;;;;;;;;;;10188181;29;20050;-88
2023/08/27 05:08:17;;;;;;;71.93;34.20;;;;;;;;;;10190382;29;20059;-88
2023/08/27 05:13:18;;;;;;;62.88;29.70;;;;;;;;;;10164409;23;1126124;-88
2023/08/27 05:18:19;;;;;;;55.42;28.02;;;;;;;;;;10163545;29;20032;-89
2023/08/27 05:23:22;;;;;;;57.78;27.13;;;;;;;;;;10161784;29;20124;-90
2023/08/27 05:28:24;;;;;;;49.10;24.65;;;;;;;;;;10163840;29;20043;-91
2023/08/27 05:33:25;;;;;;;42.17;21.23;;;;;;;;;;10161323;29;20048;-90
2023/08/27 05:38:32;;;;;;;39.53;20.67;;;;;;;;;;10154120;29;20111;-91
2023/08/27 05:43:33;;;;;;;41.55;22.20;;;;;;;;;;10161752;29;20024;-90
2023/08/27 05:48:34;;;;;;;42.63;24.73;;;;;;;;;;10161559;29;20043;-88
2023/08/27 05:53:35;;;;;;;47.75;25.50;;;;;;;;;;10148462;29;20519;-87
2023/08/27 05:58:36;;;;;;;51.47;27.80;;;;;;;;;;10156684;29;20047;-89
2023/08/27 06:03:37;;;;;;;47.00;26.02;;;;;;;;;;10153450;29;20039;-91
2023/08/27 06:08:38;;;;;;;43.60;23.90;;;;;;;;;;10228231;23;20070;-90
2023/08/27 06:13:40;;;;;;;42.55;22.65;;;;;;;;;;10251934;28;20402;-88
2023/08/27 06:18:41;;;;;;;43.13;22.10;;;;;;;;;;10250163;28;20487;-90
2023/08/27 06:23:42;;;;;;;55.67;29.88;;;;;;;;;;10276188;28;20596;-93
2023/08/27 06:28:46;;;;;;;42.53;23.55;;;;;;;;;;10262121;28;20027;-90
2023/08/27 06:33:48;;;;;;;38.08;20.90;;;;;;;;;;10251721;28;20047;-89
2023/08/27 06:38:49;;;;;;;39.35;22.60;;;;;;;;;;10263535;28;20592;-92
2023/08/27 06:43:53;;;;;;;34.85;21.20;;;;;;;;;;10265546;28;20505;-94
2023/08/27 06:48:56;;;;;;;36.47;22.90;;;;;;;;;;10240156;28;20061;-92
2023/08/27 06:53:57;;;;;;;41.13;23.02;;;;;;;;;;10234379;28;20860;-91
2023/08/27 06:58:58;;;;;;;34.78;20.33;;;;;;;;;;10233177;28;20062;-93
2023/08/27 07:03:59;;;;;;;34.63;20.60;;;;;;;;;;10240776;28;20089;-88
2023/08/27 07:09:00;;;;;;;30.77;18.23;;;;;;;;;;10221813;28;20109;-89
2023/08/27 07:14:02;;;;;;;32.58;20.42;;;;;;;;;;10232677;28;20046;-90
2023/08/27 07:19:03;;;;;;;32.20;21.60;;;;;;;;;;10222032;28;20028;-88
2023/08/27 07:24:04;;;;;;;35.60;22.10;;;;;;;;;;10207711;29;20738;-88
2023/08/27 07:29:05;;;;;;;34.20;21.90;;;;;;;;;;10201154;29;20042;-88
2023/08/27 07:34:06;;;;;;;39.15;23.45;;;;;;;;;;10200477;29;20048;-90
2023/08/27 07:39:07;;;;;;;28.08;19.77;;;;;;;;;;10213604;29;20123;-89
2023/08/27 07:44:08;;;;;;;29.58;19.42;;;;;;;;;;10217512;29;20309;-89
2023/08/27 07:49:10;;;;;;;28.65;19.02;;;;;;;;;;10209536;29;20045;-89
2023/08/27 07:54:11;;;;;;;40.42;31.08;;;;;;;;;;10216170;29;20501;-92
2023/08/27 07:59:13;;;;;;;48.00;35.38;;;;;;;;;;10214213;28;20106;-91
2023/08/27 08:04:14;;;;;;;39.13;26.95;;;;;;;;;;10240098;29;20034;-88
2023/08/27 08:09:15;;;;;;;44.97;28.58;;;;;;;;;;10232961;28;20063;-87
2023/08/27 08:14:16;;;;;;;44.47;25.83;;;;;;;;;;10203414;29;20040;-88
2023/08/27 08:19:18;;;;;;;221.70;112.82;;;;;;;;;;10222015;28;20122;-92
2023/08/27 08:24:19;;;;;;;33.42;23.23;;;;;;;;;;10207753;29;20086;-85
2023/08/27 08:29:20;;;;;;;26.33;19.70;;;;;;;;;;10212862;29;20426;-89
2023/08/27 08:34:21;;;;;;;30.13;20.80;;;;;;;;;;10212988;29;20321;-87
2023/08/27 08:39:23;;;;;;;41.85;25.50;;;;;;;;;;10223351;28;20028;-88
2023/08/27 08:44:39;;;;;;;26.60;18.77;;;;;;;;;;10231039;28;20031;-87
2023/08/27 08:49:42;;;;;;;33.45;22.15;;;;;;;;;;10209441;29;20023;-87
2023/08/27 08:54:44;;;;;;;19.48;15.10;;;;;;;;;;10220471;29;20074;-87
2023/08/27 08:59:46;;;;;;;44.90;28.70;;;;;;;;;;10213746;29;20046;-87
2023/08/27 09:04:49;;;;;;;30.20;21.55;;;;;;;;;;10203854;29;20055;-88
2023/08/27 09:09:51;;;;;;;23.00;17.35;;;;;;;;;;10201666;29;20048;-85
2023/08/27 09:14:52;;;;;;;22.30;17.73;;;;;;;;;;10219800;29;20039;-86
2023/08/27 09:19:53;;;;;;;29.48;19.58;;;;;;;;;;10204369;29;20519;-86
2023/08/27 09:24:54;;;;;;;20.80;16.10;;;;;;;;;;10216658;29;20043;-85
2023/08/27 09:30:00;;;;;;;17.65;13.70;;;;;;;;;;10206616;29;20550;-85
2023/08/27 09:35:01;;;;;;;22.60;16.20;;;;;;;;;;10204639;29;20457;-85
2023/08/27 09:40:06;;;;;;;18.85;14.82;;;;;;;;;;10200759;29;20174;-86
2023/08/27 09:45:07;;;;;;;17.27;14.85;;;;;;;;;;10207378;29;20036;-85
2023/08/27 09:50:15;;;;;;;17.13;13.55;;;;;;;;;;10196437;29;20031;-84
2023/08/27 09:55:16;;;;;;;20.15;15.80;;;;;;;;;;10222822;29;20056;-81
2023/08/27 10:00:24;;;;;;;18.65;14.18;;;;;;;;;;10242650;28;20046;-86
2023/08/27 10:05:32;;;;;;;18.27;14.77;;;;;;;;;;10226927;29;20081;-85
2023/08/27 10:10:37;;;;;;;20.70;16.45;;;;;;;;;;10213082;29;20059;-85
2023/08/27 10:15:39;;;;;;;20.48;15.07;;;;;;;;;;10208133;29;20031;-86
2023/08/27 10:20:41;;;;;;;16.70;14.13;;;;;;;;;;10231520;29;20039;-85
2023/08/27 10:25:43;;;;;;;19.38;14.27;;;;;;;;;;10206881;29;20028;-84
2023/08/27 10:30:45;;;;;;;17.90;13.82;;;;;;;;;;10215696;29;20035;-85
2023/08/27 10:35:48;;;;;;;17.45;12.82;;;;;;;;;;10213649;29;20062;-85
2023/08/27 10:40:50;;;;;;;16.35;12.82;;;;;;;;;;10225125;28;20093;-85
2023/08/27 10:45:52;;;;;;;15.70;13.48;;;;;;;;;;10216988;28;20550;-85
2023/08/27 10:50:58;;;;;;;16.23;12.40;;;;;;;;;;10202478;29;20019;-83
2023/08/27 10:56:00;;;;;;;16.73;12.27;;;;;;;;;;10229256;29;20031;-84
2023/08/27 11:01:11;;;;;;;13.82;11.85;;;;;;;;;;10225058;29;20024;-83
2023/08/27 11:06:13;;;;;;;12.70;11.40;;;;;;;;;;10207665;29;20086;-84
2023/08/27 11:11:14;;;;;;;12.73;10.35;;;;;;;;;;10222751;29;20063;-85
2023/08/27 11:16:16;;;;;;;12.40;10.98;;;;;;;;;;10232077;29;20034;-86
2023/08/27 11:21:21;;;;;;;12.90;11.05;;;;;;;;;;10225808;29;20031;-86
2023/08/27 11:26:23;;;;;;;14.55;13.02;;;;;;;;;;10213352;29;20031;-84
2023/08/27 11:31:24;;;;;;;16.58;12.38;;;;;;;;;;10196619;29;20420;-84
2023/08/27 11:36:25;;;;;;;13.50;11.93;;;;;;;;;;10213427;29;20042;-85
2023/08/27 11:41:33;;;;;;;13.80;12.38;;;;;;;;;;10216167;29;20059;-86
2023/08/27 11:46:34;;;;;;;13.20;11.40;;;;;;;;;;10214101;28;20039;-86
2023/08/27 11:51:35;;;;;;;15.05;12.55;;;;;;;;;;10221711;28;20662;-86
2023/08/27 11:56:37;;;;;;;14.27;12.55;;;;;;;;;;10205074;29;20646;-88
2023/08/27 12:01:41;;;;;;;15.55;12.38;;;;;;;;;;10215507;29;20039;-87
2023/08/27 12:06:52;;;;;;;14.90;13.13;;;;;;;;;;10216459;29;20051;-86
2023/08/27 12:12:07;;;;;;;17.85;14.80;;;;;;;;;;10214501;28;20028;-87
2023/08/27 12:17:09;;;;;;;17.20;15.05;;;;;;;;;;10206886;29;20035;-87
2023/08/27 12:22:14;;;;;;;16.50;13.65;;;;;;;;;;10203165;28;20031;-87
2023/08/27 12:27:16;;;;;;;17.05;13.82;;;;;;;;;;10215002;29;20491;-89
2023/08/27 12:32:18;;;;;;;16.17;14.43;;;;;;;;;;10210356;29;20035;-88
2023/08/27 12:37:20;;;;;;;19.42;14.32;;;;;;;;;;10171840;23;20061;-88
2023/08/27 12:42:39;;;;;;;19.60;16.67;;;;;;;;;;10122512;29;20167;-88
2023/08/27 12:47:40;;;;;;;20.25;16.20;;;;;;;;;;10140739;29;20052;-88
2023/08/27 12:52:45;;;;;;;17.85;15.77;;;;;;;;;;10134217;29;20797;-88
2023/08/27 12:57:46;;;;;;;18.20;15.48;;;;;;;;;;10132761;29;20031;-90
2023/08/27 13:02:47;;;;;;;18.63;15.85;;;;;;;;;;10120743;29;20056;-88
2023/08/27 13:08:06;;;;;;;19.42;16.27;;;;;;;;;;10129479;29;20499;-90
2023/08/27 13:13:13;;;;;;;19.75;16.58;;;;;;;;;;10100763;29;20384;-90
2023/08/27 13:18:19;;;;;;;20.20;16.05;;;;;;;;;;10129334;29;20207;-88
2023/08/27 13:23:23;;;;;;;19.33;16.25;;;;;;;;;;10121351;29;20028;-89
2023/08/27 13:28:24;;;;;;;18.77;14.63;;;;;;;;;;10107927;29;20025;-87
2023/08/27 13:33:25;;;;;;;20.05;15.27;;;;;;;;;;10143635;29;20051;-86
2023/08/27 13:38:35;;;;;;;15.98;13.50;;;;;;;;;;10179513;29;20032;-88
2023/08/27 13:43:36;;;;;;;16.17;14.40;;;;;;;;;;10167079;29;20047;-87
2023/08/27 13:48:37;;;;;;;17.23;13.65;;;;;;;;;;10180349;29;20071;-88
2023/08/27 13:53:38;;;;;;;17.48;13.80;;;;;;;;;;10165730;29;20040;-87
2023/08/27 13:58:41;;;;;;;18.17;14.90;;;;;;;;;;10164692;29;20064;-87
2023/08/27 14:03:42;;;;;;;19.73;15.25;;;;;;;;;;10173873;29;20063;-88
2023/08/27 14:08:44;;;;;;;19.48;15.80;;;;;;;;;;10156571;29;20032;-88
2023/08/27 14:13:45;;;;;;;17.45;14.13;;;;;;;;;;10161542;29;20043;-88
2023/08/27 14:18:46;;;;;;;19.95;14.80;;;;;;;;;;10179662;29;20399;-89
2023/08/27 14:23:47;;;;;;;17.83;13.93;;;;;;;;;;10156482;29;20064;-88
2023/08/27 14:28:48;;;;;;;19.25;15.18;;;;;;;;;;10157151;29;20039;-88
2023/08/27 14:33:49;;;;;;;17.80;14.52;;;;;;;;;;10170712;29;20053;-88
2023/08/27 14:38:50;;;;;;;18.83;15.25;;;;;;;;;;10176646;29;20107;-88
2023/08/27 14:43:51;;;;;;;18.30;13.68;;;;;;;;;;10164696;29;20124;-88
2023/08/27 14:48:53;;;;;;;15.80;12.82;;;;;;;;;;10169415;29;20032;-88
2023/08/27 14:53:54;;;;;;;14.80;12.80;;;;;;;;;;10165812;29;20099;-88
2023/08/27 14:58:55;;;;;;;15.65;13.00;;;;;;;;;;10160881;29;20040;-89
2023/08/27 15:03:56;;;;;;;17.55;13.13;;;;;;;;;;10184360;29;20071;-88
2023/08/27 15:08:57;;;;;;;19.48;12.35;;;;;;;;;;10172054;29;20028;-88
2023/08/27 15:13:58;;;;;;;13.88;11.82;;;;;;;;;;10173427;29;20032;-87
2023/08/27 15:18:59;;;;;;;14.23;11.60;;;;;;;;;;10169292;29;20024;-87
2023/08/27 15:24:00;;;;;;;14.07;12.00;;;;;;;;;;10166712;29;20787;-87
2023/08/27 15:29:01;;;;;;;14.02;11.77;;;;;;;;;;10167262;29;20043;-87
2023/08/27 15:34:09;;;;;;;15.98;12.23;;;;;;;;;;10171442;29;20060;-86
2023/08/27 15:39:10;;;;;;;15.55;12.23;;;;;;;;;;10161274;29;20035;-86
2023/08/27 15:44:11;;;;;;;15.73;12.18;;;;;;;;;;10164485;29;20063;-87
2023/08/27 15:49:12;;;;;;;14.35;11.90;;;;;;;;;;10167161;29;20028;-87
2023/08/27 15:54:13;;;;;;;14.90;11.35;;;;;;;;;;10180481;29;20079;-87
2023/08/27 15:59:14;;;;;;;15.68;11.48;;;;;;;;;;10175065;29;20042;-87
2023/08/27 16:04:17;;;;;;;17.27;13.98;;;;;;;;;;10177658;29;20024;-87
2023/08/27 16:09:18;;;;;;;15.20;12.50;;;;;;;;;;10175693;29;20042;-88
2023/08/27 16:14:19;;;;;;;289.52;173.60;;;;;;;;;;10161244;29;20041;-88
2023/08/27 16:19:20;;;;;;;545.20;454.23;;;;;;;;;;10150307;29;20725;-88
2023/08/27 16:24:21;;;;;;;129.27;107.22;;;;;;;;;;10155414;29;20108;-88
2023/08/27 16:29:22;;;;;;;80.20;58.50;;;;;;;;;;10163016;29;20033;-89
2023/08/27 16:34:23;;;;;;;59.60;39.45;;;;;;;;;;10167649;29;20455;-87
2023/08/27 16:39:25;;;;;;;54.60;37.88;;;;;;;;;;10172475;29;20058;-91
2023/08/27 16:44:28;;;;;;;44.30;31.60;;;;;;;;;;10166778;29;20056;-89
2023/08/27 16:49:31;;;;;;;36.35;27.17;;;;;;;;;;10174843;29;20655;-89
2023/08/27 16:54:32;;;;;;;28.58;22.95;;;;;;;;;;10180740;29;20044;-87
2023/08/27 16:59:33;;;;;;;21.60;18.75;;;;;;;;;;10175371;29;20122;-87
2023/08/27 17:04:34;;;;;;;20.92;15.68;;;;;;;;;;10157657;29;20455;-87
2023/08/27 17:09:35;;;;;;;23.88;17.77;;;;;;;;;;10174005;29;20036;-87
2023/08/27 17:14:36;;;;;;;24.80;18.80;;;;;;;;;;10166481;29;20051;-88
2023/08/27 17:19:40;;;;;;;23.70;18.35;;;;;;;;;;10183312;29;20058;-87
2023/08/27 17:24:41;;;;;;;22.35;17.38;;;;;;;;;;10172720;29;20063;-87
2023/08/27 17:29:42;;;;;;;22.80;18.08;;;;;;;;;;10166052;29;20465;-87
2023/08/27 17:34:44;;;;;;;19.42;16.05;;;;;;;;;;10176600;29;20063;-87
2023/08/27 17:39:45;;;;;;;18.08;15.10;;;;;;;;;;10160035;29;20543;-87
2023/08/27 17:44:46;;;;;;;24.33;17.00;;;;;;;;;;10156056;29;20027;-87
2023/08/27 17:49:48;;;;;;;23.92;17.63;;;;;;;;;;10146622;29;20594;-88
2023/08/27 17:54:49;;;;;;;19.55;16.17;;;;;;;;;;10151515;29;20112;-84
2023/08/27 17:59:50;;;;;;;21.90;16.23;;;;;;;;;;10141749;29;20063;-89
2023/08/27 18:10:30;;;;;;;32.03;22.67;;;;;;;;;;10160938;29;20044;-87
2023/08/27 18:15:37;;;;;;;29.00;23.17;;;;;;;;;;10153196;29;20040;-87
2023/08/27 18:21:20;;;;;;;33.05;25.02;;;;;;;;;;10142511;29;20115;-87
2023/08/27 18:26:21;;;;;;;35.22;25.33;;;;;;;;;;10124533;29;20099;-86
2023/08/27 18:31:22;;;;;;;33.53;24.20;;;;;;;;;;10156434;29;20048;-86
2023/08/27 18:36:24;;;;;;;36.90;26.17;;;;;;;;;;10171756;29;20040;-86
2023/08/27 18:41:25;;;;;;;35.50;26.30;;;;;;;;;;10167637;29;20036;-86
2023/08/27 18:46:28;;;;;;;33.38;26.00;;;;;;;;;;10160818;29;20051;-87
2023/08/27 18:51:29;;;;;;;40.33;28.00;;;;;;;;;;10173025;29;20099;-88
2023/08/27 18:56:31;;;;;;;32.85;25.20;;;;;;;;;;10185201;29;20071;-88
2023/08/27 19:01:32;;;;;;;38.95;27.48;;;;;;;;;;10187260;29;20564;-86
2023/08/27 19:06:33;;;;;;;38.50;29.23;;;;;;;;;;10162615;29;20036;-85
2023/08/27 19:11:34;;;;;;;37.97;29.15;;;;;;;;;;10184527;29;20040;-87
2023/08/27 19:16:35;;;;;;;43.13;30.67;;;;;;;;;;10189217;29;20036;-88
2023/08/27 19:21:48;;;;;;;43.85;30.75;;;;;;;;;;10183221;29;20068;-86
2023/08/27 19:26:49;;;;;;;43.05;30.90;;;;;;;;;;10201562;29;20039;-85
2023/08/27 19:31:50;;;;;;;41.13;30.58;;;;;;;;;;10168009;23;20052;-88
2023/08/27 19:36:51;;;;;;;45.05;32.42;;;;;;;;;;10125590;29;20028;-86
2023/08/27 19:41:52;;;;;;;41.92;32.03;;;;;;;;;;10111123;29;20397;-85
2023/08/27 19:46:54;;;;;;;43.95;31.90;;;;;;;;;;10105229;29;20029;-87
2023/08/27 19:51:56;;;;;;;47.72;34.03;;;;;;;;;;10122964;29;20064;-87
2023/08/27 19:56:57;;;;;;;46.63;31.67;;;;;;;;;;10109106;29;20040;-87
2023/08/27 20:01:58;;;;;;;46.10;32.15;;;;;;;;;;10123412;29;20044;-86
2023/08/27 20:06:59;;;;;;;51.40;33.72;;;;;;;;;;10127984;29;20614;-86
2023/08/27 20:12:02;;;;;;;39.58;30.70;;;;;;;;;;10138847;29;20044;-87
2023/08/27 20:17:03;;;;;;;49.20;35.80;;;;;;;;;;10099760;29;20033;-86
2023/08/27 20:22:05;;;;;;;54.15;35.70;;;;;;;;;;10125125;29;20048;-88
2023/08/27 20:27:06;;;;;;;51.97;35.45;;;;;;;;;;10102716;29;20485;-87
2023/08/27 20:32:07;;;;;;;50.25;34.38;;;;;;;;;;10153101;29;20135;-86
2023/08/27 20:37:08;;;;;;;52.08;35.67;;;;;;;;;;10163007;29;20028;-86
2023/08/27 20:42:09;;;;;;;53.28;36.10;;;;;;;;;;10162812;29;20047;-87
2023/08/27 20:47:10;;;;;;;54.65;36.80;;;;;;;;;;10160955;29;20751;-87
2023/08/27 20:52:11;;;;;;;56.50;35.88;;;;;;;;;;10162071;29;20102;-89
2023/08/27 20:57:12;;;;;;;52.63;35.13;;;;;;;;;;10160888;29;20040;-87
2023/08/27 21:02:16;;;;;;;58.97;35.40;;;;;;;;;;10162734;29;20036;-86
2023/08/27 21:07:17;;;;;;;56.60;36.15;;;;;;;;;;10162486;29;20033;-86
2023/08/27 21:12:18;;;;;;;52.78;37.03;;;;;;;;;;10149849;29;20135;-86
2023/08/27 21:17:19;;;;;;;55.22;36.88;;;;;;;;;;10161660;29;20547;-86
2023/08/27 21:22:20;;;;;;;48.58;35.60;;;;;;;;;;10162242;29;20036;-86
2023/08/27 21:27:21;;;;;;;58.20;39.35;;;;;;;;;;10160779;29;21056;-87
2023/08/27 21:32:22;;;;;;;61.72;42.10;;;;;;;;;;10120888;29;20825;-87
2023/08/27 21:37:23;;;;;;;61.17;42.00;;;;;;;;;;10104967;29;20024;-87
2023/08/27 21:42:24;;;;;;;55.15;40.20;;;;;;;;;;10122670;29;20140;-87
2023/08/27 21:47:25;;;;;;;51.05;35.75;;;;;;;;;;10122599;29;20029;-87
2023/08/27 21:52:26;;;;;;;52.60;36.28;;;;;;;;;;10123752;29;20386;-88
2023/08/27 21:57:27;;;;;;;49.42;36.20;;;;;;;;;;10105021;29;20041;-88
2023/08/27 22:02:30;;;;;;;56.90;38.90;;;;;;;;;;10122182;29;20044;-86
2023/08/27 22:07:32;;;;;;;65.43;39.28;;;;;;;;;;10123581;29;20032;-89
2023/08/27 22:12:33;;;;;;;56.35;39.00;;;;;;;;;;10104025;29;20834;-92
2023/08/27 22:17:34;;;;;;;55.67;37.30;;;;;;;;;;10105955;29;20045;-89
2023/08/27 22:22:35;;;;;;;53.90;34.20;;;;;;;;;;10106447;29;20831;-90
2023/08/27 22:27:37;;;;;;;50.80;34.13;;;;;;;;;;10105358;29;20047;-90
2023/08/27 22:32:38;;;;;;;44.28;30.58;;;;;;;;;;10158957;29;20573;-90
2023/08/27 22:37:39;;;;;;;38.13;26.60;;;;;;;;;;10166902;29;20070;-91
2023/08/27 22:42:40;;;;;;;35.28;23.67;;;;;;;;;;10157276;29;20511;-89
2023/08/27 22:47:41;;;;;;;38.15;24.75;;;;;;;;;;10167321;29;20044;-89
2023/08/27 22:52:42;;;;;;;39.05;25.55;;;;;;;;;;10167472;29;20052;-90
2023/08/27 22:57:43;;;;;;;33.47;24.20;;;;;;;;;;10167488;29;20028;-88
2023/08/27 23:02:44;;;;;;;35.05;22.42;;;;;;;;;;10166765;29;20480;-90
2023/08/27 23:07:45;;;;;;;39.47;24.30;;;;;;;;;;10166944;29;20399;-91
2023/08/27 23:12:47;;;;;;;47.95;26.55;;;;;;;;;;10164722;29;20039;-91
2023/08/27 23:17:48;;;;;;;40.33;24.20;;;;;;;;;;10165701;29;20075;-87
2023/08/27 23:22:49;;;;;;;31.33;19.13;;;;;;;;;;10165172;29;20036;-90
2023/08/27 23:27:50;;;;;;;16.30;10.90;;;;;;;;;;10165417;29;20039;-86
2023/08/27 23:32:51;;;;;;;9.68;5.88;;;;;;;;;;10110888;29;20053;-86
2023/08/27 23:37:52;;;;;;;7.80;6.00;;;;;;;;;;10127583;29;20485;-85
2023/08/27 23:42:53;;;;;;;7.05;5.20;;;;;;;;;;10110943;29;20033;-89
2023/08/27 23:47:54;;;;;;;5.47;3.95;;;;;;;;;;10108360;29;20059;-86
2023/08/27 23:52:55;;;;;;;3.78;3.38;;;;;;;;;;10109840;29;20131;-85
2023/08/27 23:57:56;;;;;;;5.80;4.15;;;;;;;;;;10110190;29;20066;-86
